Time;durP1;ratioP1;P1;durP2;ratioP2;P2;SDS_P1;SDS_P2;PMS_P1;PMS_P2;Temp;Humidity;BMP_temperature;BMP_pressure;BME280_temperature;BME280_humidity;BME280_pressure;Samples;Min_cycle;Max_cycle;Signal;HPM_P1;HPM_P2
2020/12/26 00:00:14;;;;;;;3.33;1.30;;;3.70;61.20;;;;;;5022774;28;20045;-71
2020/12/26 00:02:57;;;;;;;2.17;1.10;;;3.60;56.60;;;;;;5009784;28;20049;-70
2020/12/26 00:05:41;;;;;;;2.42;1.38;;;3.60;56.60;;;;;;5013365;28;20104;-70
2020/12/26 00:08:07;;;;;;;1.73;1.20;;;3.60;57.30;;;;;;5021587;28;20037;-70
2020/12/26 00:10:32;;;;;;;3.47;1.58;;;3.50;57.80;;;;;;5022698;28;20038;-70
2020/12/26 00:12:58;;;;;;;3.30;1.20;;;3.40;59.80;;;;;;5026167;28;20022;-70
2020/12/26 00:15:24;;;;;;;2.55;1.20;;;3.50;57.40;;;;;;5022660;28;20029;-70
2020/12/26 00:17:49;;;;;;;1.85;1.40;;;3.50;58.50;;;;;;5022740;28;20036;-71
2020/12/26 00:20:19;;;;;;;1.80;1.30;;;3.50;56.80;;;;;;5022524;28;20326;-71
2020/12/26 00:22:45;;;;;;;1.50;1.30;;;3.50;59.80;;;;;;5021860;28;20038;-71
2020/12/26 00:25:10;;;;;;;1.63;1.30;;;3.50;60.40;;;;;;5025888;28;20053;-71
2020/12/26 00:27:36;;;;;;;1.80;1.35;;;3.50;58.30;;;;;;5022605;28;20042;-71
2020/12/26 00:30:03;;;;;;;2.10;1.38;;;3.40;56.70;;;;;;5022582;28;20034;-71
2020/12/26 00:32:28;;;;;;;2.22;1.30;;;3.40;58.00;;;;;;5021534;28;20038;-71
2020/12/26 00:34:54;;;;;;;1.90;1.30;;;3.40;58.40;;;;;;5022398;28;20198;-71
2020/12/26 00:37:19;;;;;;;2.35;1.33;;;3.40;57.60;;;;;;5025420;28;20034;-72
2020/12/26 00:39:45;;;;;;;2.42;1.55;;;3.40;58.70;;;;;;5023000;28;20025;-71
2020/12/26 00:42:10;;;;;;;2.05;1.50;;;3.40;59.10;;;;;;5004366;28;20030;-72
2020/12/26 00:44:36;;;;;;;2.47;1.30;;;3.40;57.70;;;;;;5020854;28;20337;-71
2020/12/26 00:47:02;;;;;;;2.95;1.30;;;3.40;59.80;;;;;;5021021;28;20336;-71
2020/12/26 00:49:27;;;;;;;1.70;1.30;;;3.30;58.90;;;;;;5021008;28;20029;-71
2020/12/26 00:51:53;;;;;;;2.00;1.50;;;3.30;59.40;;;;;;5025220;28;20041;-71
2020/12/26 00:54:18;;;;;;;3.20;1.80;;;3.40;60.20;;;;;;5021827;28;20038;-71
2020/12/26 00:56:44;;;;;;;2.47;1.40;;;3.40;64.00;;;;;;5020079;28;20061;-71
2020/12/26 00:59:09;;;;;;;1.83;1.33;;;3.50;63.90;;;;;;5021383;28;20107;-71
2020/12/26 01:01:35;;;;;;;1.90;1.40;;;3.40;65.50;;;;;;5022093;28;20261;-71
2020/12/26 01:04:00;;;;;;;1.42;1.23;;;3.40;65.90;;;;;;5025274;28;20029;-71
2020/12/26 01:06:26;;;;;;;3.38;1.58;;;3.40;63.50;;;;;;5021823;28;20148;-71
2020/12/26 01:08:51;;;;;;;2.28;1.50;;;3.30;62.80;;;;;;5021974;28;20056;-71
2020/12/26 01:11:17;;;;;;;2.60;1.90;;;3.30;62.80;;;;;;5004478;28;20064;-71
2020/12/26 01:13:43;;;;;;;2.92;2.00;;;3.40;63.40;;;;;;5021965;28;20053;-71
2020/12/26 01:16:12;;;;;;;3.92;2.40;;;3.40;64.20;;;;;;5024791;28;20041;-72
2020/12/26 01:18:38;;;;;;;5.30;3.10;;;3.50;63.90;;;;;;5020905;28;20034;-71
2020/12/26 01:21:04;;;;;;;7.05;3.95;;;3.60;64.40;;;;;;4990486;28;20034;-71
2020/12/26 01:23:31;;;;;;;6.97;4.40;;;3.60;64.30;;;;;;5009982;28;20041;-71
2020/12/26 01:25:56;;;;;;;7.50;5.18;;;3.60;64.70;;;;;;5021152;28;20081;-71
2020/12/26 01:28:22;;;;;;;8.10;5.00;;;3.50;63.30;;;;;;5021540;28;20034;-71
2020/12/26 01:30:48;;;;;;;7.40;4.68;;;3.60;63.60;;;;;;5004106;28;20249;-71
2020/12/26 01:33:14;;;;;;;5.20;3.38;;;3.70;64.80;;;;;;5017018;28;20034;-71
2020/12/26 01:35:39;;;;;;;4.65;3.28;;;3.70;64.40;;;;;;5021512;28;20037;-71
2020/12/26 01:38:05;;;;;;;3.70;2.72;;;3.70;64.80;;;;;;5020326;28;20026;-72
2020/12/26 01:40:30;;;;;;;3.28;2.47;;;3.70;64.80;;;;;;5021182;28;20079;-70
2020/12/26 01:42:57;;;;;;;5.35;2.72;;;3.70;65.20;;;;;;5023255;28;20044;-71
2020/12/26 01:45:23;;;;;;;3.97;2.35;;;3.60;64.60;;;;;;5020253;28;20088;-71
2020/12/26 01:47:49;;;;;;;3.80;2.40;;;3.70;64.90;;;;;;5020964;28;20097;-71
2020/12/26 01:50:15;;;;;;;3.78;2.40;;;3.60;62.40;;;;;;5020023;28;20229;-71
2020/12/26 01:52:40;;;;;;;4.15;2.38;;;3.60;63.40;;;;;;5019913;28;20029;-71
2020/12/26 01:55:06;;;;;;;3.78;2.30;;;3.50;62.00;;;;;;5023554;28;20030;-71
2020/12/26 01:57:35;;;;;;;4.00;2.40;;;3.40;62.40;;;;;;5019832;28;20049;-71
2020/12/26 02:00:07;;;;;;;3.00;2.30;;;3.40;63.70;;;;;;5020966;28;20344;-71
2020/12/26 02:02:32;;;;;;;4.03;2.10;;;3.40;61.90;;;;;;5019747;28;20105;-71
2020/12/26 02:04:58;;;;;;;3.63;2.42;;;3.40;64.30;;;;;;5020952;28;20333;-71
2020/12/26 02:07:23;;;;;;;2.60;2.10;;;3.40;65.40;;;;;;5020347;28;20026;-71
2020/12/26 02:09:49;;;;;;;5.35;3.63;;;3.50;64.70;;;;;;5027658;28;20121;-71
2020/12/26 02:12:14;;;;;;;4.78;3.22;;;3.40;64.30;;;;;;5024019;28;20225;-71
2020/12/26 02:14:49;;;;;;;3.28;2.50;;;3.40;64.50;;;;;;5024962;28;20038;-71
2020/12/26 02:17:14;;;;;;;3.17;2.17;;;3.40;64.30;;;;;;5024675;28;20034;-71
2020/12/26 02:19:40;;;;;;;3.17;2.38;;;3.40;64.80;;;;;;5025188;28;20329;-71
2020/12/26 02:22:05;;;;;;;3.85;2.35;;;3.40;64.40;;;;;;5026908;28;20034;-71
2020/12/26 02:24:31;;;;;;;3.90;2.40;;;3.40;64.50;;;;;;5024127;28;20037;-71
2020/12/26 02:26:57;;;;;;;6.70;2.50;;;3.40;64.50;;;;;;5024665;28;20046;-71
2020/12/26 02:29:22;;;;;;;3.95;2.60;;;3.40;64.10;;;;;;5023415;28;20038;-71
2020/12/26 02:31:48;;;;;;;4.57;2.35;;;3.50;64.50;;;;;;5023563;28;20038;-71
2020/12/26 02:34:13;;;;;;;5.32;2.35;;;3.40;65.30;;;;;;5026995;28;20034;-72
2020/12/26 02:36:39;;;;;;;3.25;2.30;;;3.40;64.40;;;;;;5025035;28;20038;-71
2020/12/26 02:39:05;;;;;;;5.88;3.03;;;3.50;65.00;;;;;;5024409;28;20044;-71
2020/12/26 02:41:31;;;;;;;5.28;3.30;;;3.40;64.40;;;;;;5023682;28;20276;-71
2020/12/26 02:43:56;;;;;;;4.70;3.03;;;3.50;65.10;;;;;;5024428;28;20093;-71
2020/12/26 02:46:22;;;;;;;4.78;3.10;;;3.50;65.40;;;;;;5025158;28;20037;-70
2020/12/26 02:48:47;;;;;;;5.15;3.47;;;3.50;65.60;;;;;;5026258;28;20064;-71
2020/12/26 02:51:13;;;;;;;4.60;3.17;;;3.40;64.80;;;;;;5024586;28;20389;-71
2020/12/26 02:53:38;;;;;;;4.97;3.20;;;3.40;66.10;;;;;;5023496;28;20042;-71
2020/12/26 02:56:04;;;;;;;5.30;3.75;;;3.40;66.00;;;;;;5024011;28;20060;-70
2020/12/26 02:58:29;;;;;;;4.70;3.50;;;3.40;66.00;;;;;;5022929;28;20065;-71
2020/12/26 03:00:55;;;;;;;6.47;4.10;;;3.40;66.00;;;;;;5027575;28;20026;-71
2020/12/26 03:03:20;;;;;;;5.22;3.90;;;3.40;66.60;;;;;;5024485;28;20038;-71
2020/12/26 03:05:46;;;;;;;6.15;4.18;;;3.40;66.30;;;;;;5022929;28;20100;-71
2020/12/26 03:08:11;;;;;;;5.97;3.90;;;3.40;66.80;;;;;;5023749;28;20036;-71
2020/12/26 03:10:37;;;;;;;5.97;4.00;;;3.40;66.50;;;;;;5024029;28;20037;-71
2020/12/26 03:13:03;;;;;;;5.78;4.15;;;3.40;66.90;;;;;;5026301;28;20214;-71
2020/12/26 03:15:28;;;;;;;5.40;4.07;;;3.40;67.20;;;;;;5022874;28;20045;-71
2020/12/26 03:17:54;;;;;;;7.30;4.32;;;3.40;66.70;;;;;;5022334;28;20269;-71
2020/12/26 03:20:19;;;;;;;6.28;4.07;;;3.40;67.40;;;;;;5022354;28;20042;-71
2020/12/26 03:22:45;;;;;;;6.00;4.07;;;3.30;67.60;;;;;;5022590;28;20030;-70
2020/12/26 03:25:11;;;;;;;11.15;4.60;;;3.30;67.20;;;;;;5025815;28;20034;-71
2020/12/26 03:27:37;;;;;;;6.75;4.35;;;3.30;67.10;;;;;;5022684;28;20038;-71
2020/12/26 03:30:03;;;;;;;5.93;4.30;;;3.20;67.80;;;;;;5023616;28;20046;-71
2020/12/26 03:32:28;;;;;;;7.13;4.05;;;3.20;68.10;;;;;;5023414;28;20130;-71
2020/12/26 03:34:54;;;;;;;10.00;4.82;;;3.20;68.00;;;;;;5022181;28;20256;-71
2020/12/26 03:37:19;;;;;;;8.82;4.53;;;3.20;67.70;;;;;;5026880;28;20038;-71
2020/12/26 03:39:45;;;;;;;6.15;4.20;;;3.20;68.00;;;;;;5022665;28;20042;-71
2020/12/26 03:42:11;;;;;;;6.82;4.68;;;3.10;67.20;;;;;;5022753;28;20042;-72
2020/12/26 03:44:37;;;;;;;6.95;4.45;;;3.10;68.20;;;;;;5023418;28;20364;-71
2020/12/26 03:47:07;;;;;;;7.15;5.00;;;3.10;68.20;;;;;;5023338;28;20026;-71
2020/12/26 03:49:33;;;;;;;8.30;4.85;;;3.10;68.30;;;;;;5006072;28;20037;-71
2020/12/26 03:51:58;;;;;;;7.03;4.85;;;3.10;68.30;;;;;;5026335;28;20041;-71
2020/12/26 03:54:24;;;;;;;9.90;5.03;;;3.10;68.40;;;;;;5023628;28;20041;-71
2020/12/26 03:56:49;;;;;;;8.20;4.95;;;3.00;68.40;;;;;;5022890;28;20058;-71
2020/12/26 03:59:15;;;;;;;7.18;4.95;;;2.90;68.40;;;;;;5023065;28;20257;-71
2020/12/26 04:01:40;;;;;;;7.05;4.72;;;2.90;68.20;;;;;;5021717;28;20322;-71
2020/12/26 04:04:06;;;;;;;7.22;5.40;;;2.90;68.40;;;;;;5025047;28;20038;-71
2020/12/26 04:06:32;;;;;;;7.63;4.93;;;2.90;68.50;;;;;;5022923;28;20062;-71
2020/12/26 04:08:57;;;;;;;6.78;4.47;;;2.90;68.50;;;;;;5022731;28;20038;-71
2020/12/26 04:11:23;;;;;;;9.02;4.90;;;2.80;68.10;;;;;;5022791;28;20033;-71
2020/12/26 04:13:49;;;;;;;8.32;5.28;;;2.80;68.10;;;;;;5021738;28;20105;-71
2020/12/26 04:16:14;;;;;;;7.57;4.80;;;2.70;68.70;;;;;;5026152;28;20033;-71
2020/12/26 04:18:40;;;;;;;7.22;4.88;;;2.60;68.20;;;;;;5021633;28;20041;-71
2020/12/26 04:21:06;;;;;;;7.18;4.57;;;2.60;68.50;;;;;;5021559;28;20333;-71
2020/12/26 04:23:32;;;;;;;7.65;5.18;;;2.60;68.50;;;;;;5021372;28;20037;-71
2020/12/26 04:25:57;;;;;;;7.25;4.88;;;2.50;68.50;;;;;;5021723;28;20034;-71
2020/12/26 04:28:23;;;;;;;8.57;4.95;;;2.40;68.60;;;;;;5022670;28;20059;-71
2020/12/26 04:30:48;;;;;;;8.15;5.10;;;2.40;68.70;;;;;;5024680;28;20022;-71
2020/12/26 04:33:14;;;;;;;7.07;4.95;;;2.40;68.80;;;;;;5021629;28;20042;-71
2020/12/26 04:35:39;;;;;;;8.05;5.05;;;2.40;69.00;;;;;;5021259;28;20264;-71
2020/12/26 04:38:05;;;;;;;8.75;5.13;;;2.40;69.50;;;;;;5022626;28;20045;-71
2020/12/26 04:40:30;;;;;;;7.88;5.15;;;2.40;69.60;;;;;;5022225;28;20030;-71
2020/12/26 04:42:56;;;;;;;11.45;5.60;;;2.40;69.70;;;;;;5025647;28;20038;-71
2020/12/26 04:45:22;;;;;;;8.25;5.00;;;2.40;69.80;;;;;;5022455;28;20045;-71
2020/12/26 04:47:54;;;;;;;9.27;5.50;;;2.40;70.20;;;;;;5021302;28;20057;-71
2020/12/26 04:50:27;;;;;;;8.55;5.68;;;2.40;69.90;;;;;;5021058;28;20041;-71
2020/12/26 04:52:53;;;;;;;10.25;6.22;;;2.40;70.10;;;;;;5021281;28;20037;-71
2020/12/26 04:55:19;;;;;;;9.82;6.38;;;2.30;69.90;;;;;;5024092;28;20034;-71
2020/12/26 04:57:44;;;;;;;9.23;6.13;;;2.40;69.80;;;;;;5020774;28;20359;-71
2020/12/26 05:00:10;;;;;;;12.27;6.82;;;2.30;69.90;;;;;;5004114;28;20101;-71
2020/12/26 05:02:36;;;;;;;13.27;7.68;;;2.40;70.00;;;;;;5021444;28;20042;-71
2020/12/26 05:05:05;;;;;;;10.90;6.07;;;2.30;70.30;;;;;;5020433;28;20038;-71
2020/12/26 05:07:31;;;;;;;11.35;6.90;;;2.40;70.30;;;;;;5019157;28;20261;-70
2020/12/26 05:09:58;;;;;;;11.60;7.15;;;2.40;70.60;;;;;;5005787;28;20093;-71
2020/12/26 05:12:23;;;;;;;11.32;7.03;;;2.40;70.00;;;;;;5002736;28;20053;-71
2020/12/26 05:14:52;;;;;;;11.07;7.20;;;2.40;70.20;;;;;;5013085;28;20038;-71
2020/12/26 05:17:19;;;;;;;12.52;7.40;;;2.30;70.00;;;;;;5020827;28;20054;-71
2020/12/26 05:19:45;;;;;;;12.50;7.80;;;2.30;70.30;;;;;;5021680;28;20050;-71
2020/12/26 05:22:11;;;;;;;11.88;7.80;;;2.40;70.20;;;;;;5023708;28;20037;-71
2020/12/26 05:24:37;;;;;;;17.10;8.52;;;2.20;70.40;;;;;;5021985;28;20352;-71
2020/12/26 05:27:02;;;;;;;14.23;8.02;;;2.30;70.30;;;;;;5021725;28;20038;-71
2020/12/26 05:29:29;;;;;;;11.27;7.35;;;2.20;70.50;;;;;;5020703;28;20277;-71
2020/12/26 05:31:56;;;;;;;13.95;8.25;;;2.20;71.20;;;;;;5020179;28;20332;-71
2020/12/26 05:34:23;;;;;;;14.80;8.13;;;2.30;71.00;;;;;;5022221;28;20089;-70
2020/12/26 05:36:48;;;;;;;12.60;8.18;;;2.40;70.90;;;;;;5023729;28;20034;-71
2020/12/26 05:39:14;;;;;;;12.35;7.63;;;2.40;71.10;;;;;;5021571;28;20066;-71
2020/12/26 05:41:40;;;;;;;12.27;7.28;;;2.40;70.50;;;;;;5020981;28;20030;-71
2020/12/26 05:44:06;;;;;;;12.73;8.02;;;2.40;71.10;;;;;;5021104;28;20072;-71
2020/12/26 05:46:32;;;;;;;13.10;8.15;;;2.40;70.40;;;;;;5021206;28;20022;-70
2020/12/26 05:48:57;;;;;;;12.73;8.02;;;2.40;70.50;;;;;;5023300;28;20055;-71
2020/12/26 05:51:24;;;;;;;13.30;7.85;;;2.30;70.00;;;;;;5021542;28;20190;-72
2020/12/26 05:53:50;;;;;;;13.57;7.50;;;2.30;70.20;;;;;;5021152;28;20041;-71
2020/12/26 05:56:19;;;;;;;10.55;7.00;;;2.20;70.20;;;;;;5019692;28;20073;-71
2020/12/26 05:58:44;;;;;;;12.68;6.97;;;2.20;70.50;;;;;;5020637;28;20109;-70
2020/12/26 06:01:10;;;;;;;10.98;6.88;;;2.20;70.50;;;;;;5023727;28;20037;-71
2020/12/26 06:03:36;;;;;;;11.05;6.78;;;2.20;70.20;;;;;;5021226;28;20038;-71
2020/12/26 06:06:03;;;;;;;10.85;6.80;;;2.10;70.00;;;;;;5020857;28;20045;-71
2020/12/26 06:08:29;;;;;;;12.40;6.55;;;2.10;70.50;;;;;;5019779;28;20333;-71
2020/12/26 06:11:02;;;;;;;11.52;6.78;;;2.10;70.40;;;;;;5019615;28;20037;-70
2020/12/26 06:13:28;;;;;;;9.80;6.55;;;2.00;70.30;;;;;;5020071;28;20380;-70
2020/12/26 06:16:07;;;;;;;9.40;6.10;;;2.00;70.30;;;;;;5006895;28;20077;-71
2020/12/26 06:18:33;;;;;;;10.82;6.80;;;2.00;70.70;;;;;;5020218;28;20249;-71
2020/12/26 06:20:58;;;;;;;9.48;6.50;;;2.00;70.20;;;;;;5019766;28;20038;-70
2020/12/26 06:23:24;;;;;;;8.90;5.88;;;2.00;70.30;;;;;;5020966;28;20034;-71
2020/12/26 06:25:51;;;;;;;10.40;6.07;;;2.00;70.00;;;;;;5019063;28;20038;-68
2020/12/26 06:28:22;;;;;;;13.32;7.50;;;2.00;69.90;;;;;;5024230;28;20030;-68
2020/12/26 06:30:48;;;;;;;10.57;6.28;;;2.10;70.40;;;;;;5021317;28;20034;-69
2020/12/26 06:33:13;;;;;;;10.15;6.18;;;2.10;70.50;;;;;;5019562;28;20317;-70
2020/12/26 06:35:42;;;;;;;9.40;6.35;;;2.10;70.30;;;;;;5019351;28;20325;-72
2020/12/26 06:38:33;;;;;;;12.18;6.90;;;2.10;70.50;;;;;;5020454;28;20034;-71
2020/12/26 06:41:00;;;;;;;9.88;6.35;;;2.10;70.10;;;;;;5017924;28;20120;-71
2020/12/26 06:43:44;;;;;;;9.13;6.13;;;2.10;70.00;;;;;;5020893;28;20321;-69
2020/12/26 06:46:29;;;;;;;9.75;6.10;;;2.10;70.30;;;;;;5023833;28;20026;-70
2020/12/26 06:48:57;;;;;;;10.07;6.05;;;2.00;69.90;;;;;;5021342;28;20037;-71
2020/12/26 06:51:40;;;;;;;9.70;6.18;;;2.10;70.50;;;;;;5019425;28;20088;-72
2020/12/26 06:54:09;;;;;;;9.93;6.53;;;2.10;70.20;;;;;;5022290;28;20105;-71
2020/12/26 06:56:35;;;;;;;9.75;5.88;;;2.10;70.30;;;;;;5022737;28;20077;-71
2020/12/26 06:59:01;;;;;;;8.45;5.88;;;2.00;70.10;;;;;;5023783;28;20060;-71
2020/12/26 07:01:27;;;;;;;10.90;6.93;;;2.10;70.20;;;;;;5023518;28;20061;-71
2020/12/26 07:04:10;;;;;;;12.77;6.78;;;2.10;69.90;;;;;;5006826;28;20088;-71
2020/12/26 07:06:55;;;;;;;9.73;6.22;;;2.20;70.40;;;;;;5022607;28;20101;-71
2020/12/26 07:09:36;;;;;;;11.55;6.20;;;2.20;69.60;;;;;;5023772;28;20352;-72
2020/12/26 07:12:03;;;;;;;8.98;5.97;;;2.10;69.80;;;;;;5023857;28;20357;-71
2020/12/26 07:14:44;;;;;;;10.98;6.18;;;2.00;69.70;;;;;;5022496;28;20038;-72
2020/12/26 07:17:13;;;;;;;8.52;5.78;;;1.90;69.80;;;;;;5006169;28;20034;-72
2020/12/26 07:19:40;;;;;;;9.27;5.88;;;2.00;69.70;;;;;;5024325;28;20092;-73
2020/12/26 07:22:16;;;;;;;8.48;5.75;;;2.10;69.70;;;;;;5025999;28;20030;-70
2020/12/26 07:24:46;;;;;;;12.82;6.22;;;2.00;69.00;;;;;;5023515;28;20030;-69
2020/12/26 07:27:15;;;;;;;10.30;6.30;;;1.90;69.40;;;;;;5006202;28;20042;-70
2020/12/26 07:30:08;;;;;;;8.95;6.30;;;2.00;69.80;;;;;;5023073;28;20058;-70
2020/12/26 07:32:39;;;;;;;9.43;6.28;;;2.00;69.10;;;;;;5021839;28;20044;-71
2020/12/26 07:35:23;;;;;;;9.80;6.15;;;2.00;69.10;;;;;;5022970;28;20060;-72
2020/12/26 07:37:51;;;;;;;9.20;5.97;;;2.00;69.30;;;;;;5022944;28;20225;-72
2020/12/26 07:40:21;;;;;;;12.40;6.80;;;2.10;69.10;;;;;;5026747;28;20034;-71
2020/12/26 07:42:46;;;;;;;10.05;6.18;;;2.10;69.40;;;;;;5022639;28;20037;-71
2020/12/26 07:45:19;;;;;;;10.00;6.30;;;2.10;69.00;;;;;;5023002;28;20038;-71
2020/12/26 07:47:46;;;;;;;8.98;6.35;;;2.20;69.50;;;;;;5021676;28;20030;-71
2020/12/26 07:50:14;;;;;;;9.35;6.25;;;2.40;68.70;;;;;;5021328;28;20026;-71
2020/12/26 07:52:48;;;;;;;10.52;6.45;;;2.30;68.50;;;;;;4989110;28;20022;-71
2020/12/26 07:55:14;;;;;;;10.55;6.72;;;2.40;68.60;;;;;;5025522;28;20025;-71
2020/12/26 07:57:40;;;;;;;12.40;6.60;;;2.40;68.20;;;;;;5021460;28;20068;-72
2020/12/26 08:00:05;;;;;;;10.35;6.63;;;2.40;68.30;;;;;;5022957;28;20038;-71
2020/12/26 08:02:31;;;;;;;10.35;6.40;;;2.60;68.10;;;;;;5021712;28;20253;-71
2020/12/26 08:04:57;;;;;;;11.43;6.75;;;2.70;67.40;;;;;;5021599;28;20309;-71
2020/12/26 08:07:24;;;;;;;12.80;6.53;;;2.80;67.70;;;;;;5024339;28;20034;-70
2020/12/26 08:09:53;;;;;;;12.75;6.70;;;2.90;67.30;;;;;;5025612;28;20072;-72
2020/12/26 08:12:19;;;;;;;10.52;6.45;;;2.90;66.60;;;;;;5021838;28;20338;-70
2020/12/26 08:14:45;;;;;;;11.45;6.72;;;2.90;66.10;;;;;;5021340;28;20092;-72
2020/12/26 08:17:10;;;;;;;9.55;6.10;;;2.90;66.80;;;;;;5005315;28;20305;-71
2020/12/26 08:19:37;;;;;;;9.55;6.68;;;2.90;66.50;;;;;;5021568;28;20033;-71
2020/12/26 08:22:02;;;;;;;12.15;6.88;;;3.00;66.40;;;;;;5025777;28;20033;-71
2020/12/26 08:24:28;;;;;;;11.02;6.68;;;3.20;66.10;;;;;;5022808;28;20221;-71
2020/12/26 08:26:54;;;;;;;10.32;6.20;;;3.20;65.60;;;;;;5021264;28;20038;-72
2020/12/26 08:29:26;;;;;;;12.15;6.53;;;3.20;65.80;;;;;;5021321;28;20042;-71
2020/12/26 08:31:55;;;;;;;8.70;5.63;;;3.30;66.00;;;;;;5021385;28;20034;-71
2020/12/26 08:34:23;;;;;;;10.63;5.70;;;3.20;64.40;;;;;;5023196;28;20033;-71
2020/12/26 08:37:00;;;;;;;9.52;6.38;;;3.30;65.10;;;;;;5023181;28;20229;-72
2020/12/26 08:39:26;;;;;;;8.55;5.47;;;3.30;64.30;;;;;;5022130;28;20366;-72
2020/12/26 08:41:51;;;;;;;9.80;6.25;;;3.40;63.20;;;;;;5021998;28;20038;-72
2020/12/26 08:44:17;;;;;;;12.23;6.28;;;3.50;63.40;;;;;;5004712;28;20087;-71
2020/12/26 08:46:44;;;;;;;9.80;5.47;;;3.50;62.00;;;;;;5021199;28;20046;-71
2020/12/26 08:49:11;;;;;;;8.90;5.15;;;3.50;62.30;;;;;;5025542;28;20253;-71
2020/12/26 08:51:43;;;;;;;8.27;5.15;;;3.40;60.60;;;;;;5022370;28;20091;-69
2020/12/26 08:54:22;;;;;;;7.88;4.75;;;3.50;61.00;;;;;;5022212;28;20069;-71
2020/12/26 08:56:48;;;;;;;9.20;5.30;;;3.60;61.20;;;;;;5020850;28;20069;-74
2020/12/26 08:59:13;;;;;;;8.15;5.13;;;3.70;63.20;;;;;;5020866;28;20097;-72
2020/12/26 09:01:39;;;;;;;7.78;5.22;;;3.90;62.50;;;;;;5021281;28;20248;-72
2020/12/26 09:04:14;;;;;;;7.70;5.32;;;4.00;60.90;;;;;;5025267;28;20113;-69
2020/12/26 09:06:42;;;;;;;8.68;5.10;;;3.90;60.50;;;;;;5021095;28;20038;-72
2020/12/26 09:09:18;;;;;;;8.88;4.55;;;3.90;60.20;;;;;;5021910;28;20203;-72
2020/12/26 09:11:45;;;;;;;7.85;4.85;;;4.10;60.40;;;;;;5020804;28;20336;-72
2020/12/26 09:14:20;;;;;;;7.60;4.85;;;4.30;61.30;;;;;;5021742;28;20355;-72
2020/12/26 09:16:46;;;;;;;8.43;4.88;;;4.50;59.60;;;;;;5004359;28;20297;-72
2020/12/26 09:19:12;;;;;;;5.78;4.22;;;4.70;58.80;;;;;;5023966;28;20217;-72
2020/12/26 09:21:38;;;;;;;6.60;4.20;;;4.60;57.80;;;;;;5021690;28;20037;-70
2020/12/26 09:24:20;;;;;;;7.20;4.53;;;4.60;55.70;;;;;;5020446;28;20038;-72
2020/12/26 09:26:46;;;;;;;6.45;4.00;;;4.60;56.80;;;;;;5020166;28;20034;-72
2020/12/26 09:29:20;;;;;;;7.03;4.30;;;4.40;57.20;;;;;;5003952;28;20099;-72
2020/12/26 09:31:46;;;;;;;9.05;4.70;;;4.40;57.40;;;;;;5020256;28;20041;-72
2020/12/26 09:34:16;;;;;;;8.00;4.50;;;4.60;57.00;;;;;;5023720;28;20089;-72
2020/12/26 09:36:41;;;;;;;8.25;3.90;;;4.50;55.60;;;;;;5004294;28;20057;-72
2020/12/26 09:39:07;;;;;;;7.63;4.25;;;4.60;55.00;;;;;;5003718;28;20352;-72
2020/12/26 09:41:43;;;;;;;6.30;4.20;;;4.40;55.70;;;;;;5021520;28;20041;-73
2020/12/26 09:44:09;;;;;;;5.93;4.10;;;4.90;56.40;;;;;;5021308;28;20085;-72
2020/12/26 09:46:34;;;;;;;5.93;4.28;;;5.50;54.70;;;;;;5021005;28;20030;-72
2020/12/26 09:49:00;;;;;;;7.30;3.78;;;5.90;53.20;;;;;;5023547;28;20042;-73
2020/12/26 09:51:25;;;;;;;7.55;4.28;;;6.10;52.90;;;;;;5021246;28;20337;-73
2020/12/26 09:53:51;;;;;;;5.00;3.17;;;6.20;53.00;;;;;;5020788;28;20068;-71
2020/12/26 09:56:16;;;;;;;9.50;4.60;;;6.30;50.20;;;;;;5019817;28;20050;-72
2020/12/26 09:58:43;;;;;;;6.80;3.55;;;6.40;50.70;;;;;;5019687;28;21509;-73
2020/12/26 10:01:13;;;;;;;5.15;3.20;;;6.60;51.50;;;;;;5023088;28;20082;-73
2020/12/26 10:03:38;;;;;;;6.10;3.60;;;7.00;50.50;;;;;;5020316;28;20088;-73
2020/12/26 10:06:04;;;;;;;4.38;3.13;;;7.20;47.50;;;;;;5019626;28;20030;-73
2020/12/26 10:08:30;;;;;;;4.13;3.03;;;7.30;46.70;;;;;;5021006;28;20425;-73
2020/12/26 10:10:56;;;;;;;4.40;2.90;;;7.20;45.70;;;;;;5019521;28;20233;-75
2020/12/26 10:13:22;;;;;;;6.55;3.40;;;7.00;47.40;;;;;;5021198;28;20037;-74
2020/12/26 10:15:47;;;;;;;6.25;3.10;;;6.90;49.30;;;;;;5021509;28;20034;-75
2020/12/26 10:18:13;;;;;;;4.85;2.35;;;6.80;50.60;;;;;;5019882;28;20042;-74
2020/12/26 10:20:38;;;;;;;3.78;2.40;;;6.00;46.90;;;;;;5019635;28;20100;-75
2020/12/26 10:23:04;;;;;;;3.78;2.30;;;5.90;47.00;;;;;;5021001;28;20038;-74
2020/12/26 10:25:30;;;;;;;5.28;2.08;;;5.80;50.50;;;;;;5002915;28;20089;-74
2020/12/26 10:27:55;;;;;;;4.15;2.03;;;5.90;49.60;;;;;;5022763;28;20026;-74
2020/12/26 10:30:21;;;;;;;3.63;1.98;;;5.90;45.90;;;;;;5023139;28;20222;-76
2020/12/26 10:32:46;;;;;;;3.42;1.70;;;5.90;47.20;;;;;;5023140;28;20408;-78
2020/12/26 10:35:12;;;;;;;2.70;1.30;;;5.90;48.30;;;;;;5022987;28;20325;-77
2020/12/26 10:37:38;;;;;;;2.80;1.10;;;5.90;45.60;;;;;;5024699;28;20030;-77
2020/12/26 10:40:05;;;;;;;6.03;1.17;;;5.90;46.80;;;;;;5026757;28;20060;-78
2020/12/26 10:42:30;;;;;;;2.60;1.25;;;6.00;45.80;;;;;;5023073;28;20325;-76
2020/12/26 10:44:56;;;;;;;3.47;1.25;;;5.80;45.80;;;;;;5023016;28;20045;-76
2020/12/26 10:47:21;;;;;;;3.08;1.23;;;6.20;47.30;;;;;;5023911;28;20037;-77
2020/12/26 10:49:47;;;;;;;1.98;1.15;;;6.40;46.50;;;;;;5022215;28;20037;-76
2020/12/26 10:52:12;;;;;;;2.50;1.60;;;6.30;44.00;;;;;;5026259;28;20313;-76
2020/12/26 10:54:38;;;;;;;4.28;2.05;;;6.50;46.00;;;;;;5023085;28;20033;-77
2020/12/26 10:57:03;;;;;;;2.47;1.30;;;6.60;44.70;;;;;;5023751;28;20077;-75
2020/12/26 10:59:29;;;;;;;4.82;1.90;;;6.70;43.40;;;;;;5022747;28;20105;-75
2020/12/26 11:01:54;;;;;;;3.72;1.65;;;6.70;46.10;;;;;;5023763;28;20206;-76
2020/12/26 11:04:20;;;;;;;3.00;1.77;;;6.80;46.40;;;;;;5024280;28;20052;-73
2020/12/26 11:06:49;;;;;;;3.70;1.55;;;7.00;45.20;;;;;;5025652;28;20041;-75
2020/12/26 11:09:16;;;;;;;4.47;1.95;;;6.90;44.60;;;;;;5022719;28;20264;-75
2020/12/26 11:11:46;;;;;;;4.32;1.85;;;7.30;45.50;;;;;;5022728;28;20098;-76
2020/12/26 11:14:12;;;;;;;6.68;1.70;;;7.80;44.90;;;;;;5022609;28;20072;-75
2020/12/26 11:16:37;;;;;;;5.38;1.60;;;8.10;44.00;;;;;;5023705;28;20025;-76
2020/12/26 11:19:03;;;;;;;4.80;2.13;;;7.80;40.90;;;;;;5027226;28;20217;-75
2020/12/26 11:21:28;;;;;;;4.47;1.73;;;7.80;44.70;;;;;;5022839;28;20365;-74
2020/12/26 11:23:54;;;;;;;3.97;2.15;;;7.70;43.10;;;;;;5022727;28;20030;-73
2020/12/26 11:26:19;;;;;;;3.83;2.20;;;7.60;43.80;;;;;;5022374;28;20022;-74
2020/12/26 11:28:45;;;;;;;3.80;2.10;;;7.60;44.10;;;;;;5023077;28;20029;-75
2020/12/26 11:31:10;;;;;;;3.60;2.30;;;7.90;44.90;;;;;;5027013;28;20053;-74
2020/12/26 11:33:37;;;;;;;4.15;1.90;;;8.10;45.20;;;;;;5023406;28;20060;-75
2020/12/26 11:36:02;;;;;;;4.78;2.35;;;8.10;45.20;;;;;;5022223;28;20034;-74
2020/12/26 11:38:28;;;;;;;5.47;2.20;;;8.00;42.90;;;;;;5022437;28;20037;-74
2020/12/26 11:40:53;;;;;;;4.95;3.10;;;7.60;43.40;;;;;;5023329;28;20046;-74
2020/12/26 11:43:19;;;;;;;4.43;1.88;;;7.30;40.90;;;;;;5026589;28;20060;-74
2020/12/26 11:45:45;;;;;;;4.13;2.00;;;7.20;45.90;;;;;;5022310;28;20034;-74
2020/12/26 11:48:10;;;;;;;2.95;1.80;;;7.20;45.00;;;;;;5023044;28;20029;-74
2020/12/26 11:50:36;;;;;;;4.20;2.17;;;7.10;46.10;;;;;;5021712;28;20042;-74
2020/12/26 11:53:01;;;;;;;6.78;2.67;;;6.90;45.80;;;;;;5023000;28;20041;-74
2020/12/26 11:55:27;;;;;;;3.33;2.00;;;6.90;45.30;;;;;;5021813;28;20396;-74
2020/12/26 11:57:52;;;;;;;6.13;2.05;;;6.80;46.00;;;;;;5026032;28;20050;-75
2020/12/26 12:00:18;;;;;;;4.25;1.60;;;6.70;45.70;;;;;;5021688;28;20038;-74
2020/12/26 12:02:44;;;;;;;3.50;1.80;;;6.50;46.10;;;;;;5021689;28;20037;-74
2020/12/26 12:05:09;;;;;;;4.47;1.85;;;6.50;45.20;;;;;;5022748;28;20075;-74
2020/12/26 12:07:35;;;;;;;5.40;1.95;;;6.40;45.10;;;;;;5022963;28;20030;-74
2020/12/26 12:10:02;;;;;;;3.95;1.80;;;6.30;45.00;;;;;;5025942;28;20079;-74
2020/12/26 12:12:27;;;;;;;4.38;1.80;;;5.90;44.20;;;;;;5022846;28;20088;-74
2020/12/26 12:14:53;;;;;;;5.57;2.00;;;5.80;45.30;;;;;;5021416;28;20038;-74
2020/12/26 12:17:18;;;;;;;5.65;2.22;;;5.80;47.50;;;;;;5022120;28;20098;-74
2020/12/26 12:19:44;;;;;;;4.00;1.70;;;6.10;48.10;;;;;;5021631;28;20034;-74
2020/12/26 12:22:09;;;;;;;4.10;2.10;;;6.40;46.30;;;;;;5026238;28;20045;-74
2020/12/26 12:24:35;;;;;;;3.90;2.17;;;6.50;47.00;;;;;;5022639;28;20329;-74
2020/12/26 12:27:00;;;;;;;5.53;1.90;;;6.50;46.20;;;;;;5021211;28;20046;-74
2020/12/26 12:29:26;;;;;;;5.57;1.90;;;6.40;46.20;;;;;;5022396;28;20033;-74
2020/12/26 12:31:51;;;;;;;5.20;2.20;;;6.50;44.70;;;;;;5021302;28;20034;-74
2020/12/26 12:34:17;;;;;;;4.68;2.28;;;6.50;45.20;;;;;;5025460;28;20093;-74
2020/12/26 12:36:42;;;;;;;5.55;1.60;;;6.60;45.50;;;;;;5021245;28;20041;-74
2020/12/26 12:39:08;;;;;;;5.25;2.08;;;6.60;44.80;;;;;;5022086;28;20037;-74
2020/12/26 12:41:34;;;;;;;6.70;1.95;;;6.60;47.10;;;;;;5022080;28;20034;-74
2020/12/26 12:43:59;;;;;;;3.80;1.80;;;6.70;46.70;;;;;;5020875;28;20076;-74
2020/12/26 12:46:25;;;;;;;4.25;2.05;;;6.80;45.20;;;;;;5021233;28;20049;-73
2020/12/26 12:48:50;;;;;;;7.00;2.10;;;6.70;46.30;;;;;;5024698;28;20030;-75
2020/12/26 12:51:16;;;;;;;5.70;1.90;;;6.80;46.80;;;;;;5021440;28;20097;-74
2020/12/26 12:53:41;;;;;;;2.75;1.83;;;6.80;46.70;;;;;;5021163;28;20037;-74